createdAt,value
2018-07-28T00:03:33.036Z,24.40
2018-07-28T00:08:36.135Z,24.30
2018-07-28T00:13:39.343Z,24.30
2018-07-28T00:18:42.362Z,24.10
2018-07-28T00:23:45.347Z,23.90
2018-07-28T00:28:48.896Z,23.60
2018-07-28T00:33:51.953Z,23.50
2018-07-28T00:38:54.948Z,23.40
2018-07-28T00:43:58.488Z,23.50
2018-07-28T00:49:01.692Z,23.50
2018-07-28T00:54:04.737Z,23.40
2018-07-28T00:59:07.699Z,23.50
2018-07-28T01:04:10.675Z,23.50
2018-07-28T01:09:13.923Z,23.50
2018-07-28T01:14:17.039Z,23.70
2018-07-28T01:24:22.975Z,23.70
2018-07-28T01:29:26.135Z,23.50
2018-07-28T01:34:29.124Z,23.30
2018-07-28T01:39:32.110Z,23.40
2018-07-28T01:44:35.084Z,23.30
2018-07-28T01:49:38.248Z,23.10
2018-07-28T01:54:41.198Z,23.00
2018-07-28T01:59:44.231Z,22.90
2018-07-28T02:04:47.171Z,22.60
2018-07-28T02:09:50.174Z,22.40
2018-07-28T02:14:53.209Z,22.60
2018-07-28T02:19:56.183Z,22.50
2018-07-28T02:24:59.212Z,22.50
2018-07-28T02:30:02.511Z,22.30
2018-07-28T02:40:09.444Z,22.40
2018-07-28T02:50:15.373Z,22.20
2018-07-28T02:55:18.335Z,22.10
2018-07-28T03:00:21.406Z,21.80
2018-07-28T03:05:24.343Z,21.40
2018-07-28T03:10:27.338Z,21.30
2018-07-28T03:15:31.979Z,21.30
2018-07-28T03:20:35.048Z,21.20
2018-07-28T03:25:38.021Z,21.20
2018-07-28T03:30:40.987Z,21.30
2018-07-28T03:35:43.943Z,21.40
2018-07-28T03:40:46.977Z,21.40
2018-07-28T03:45:49.994Z,21.50
2018-07-28T03:50:53.212Z,21.40
2018-07-28T03:55:56.221Z,21.20
2018-07-28T04:00:59.431Z,21.40
2018-07-28T04:06:02.651Z,21.50
2018-07-28T04:11:06.051Z,21.60
2018-07-28T04:16:09.019Z,21.90
2018-07-28T04:21:11.975Z,22.00
2018-07-28T04:26:15.159Z,22.30
2018-07-28T04:31:18.161Z,22.40
2018-07-28T04:36:21.174Z,22.30
2018-07-28T04:41:24.214Z,22.10
2018-07-28T04:46:27.187Z,22.40
2018-07-28T04:51:30.183Z,23.10
2018-07-28T04:56:33.184Z,24.60
2018-07-28T05:01:36.411Z,25.40
2018-07-28T05:06:39.607Z,26.10
2018-07-28T05:11:42.809Z,25.20
2018-07-28T05:16:45.944Z,25.80
2018-07-28T05:21:48.991Z,27.00
2018-07-28T05:26:51.996Z,27.50
2018-07-28T05:31:55.236Z,28.10
2018-07-28T05:36:58.762Z,28.60
2018-07-28T05:42:01.813Z,29.20
2018-07-28T05:47:05.027Z,28.50
2018-07-28T05:52:08.243Z,28.80
2018-07-28T05:57:12.107Z,28.80
2018-07-28T06:02:15.352Z,28.60
2018-07-28T06:07:18.424Z,29.00
2018-07-28T06:12:21.528Z,28.90
2018-07-28T06:17:24.744Z,29.50
2018-07-28T06:22:27.760Z,29.80
2018-07-28T06:27:31.046Z,29.30
2018-07-28T06:32:34.159Z,29.00
2018-07-28T06:37:37.543Z,29.00
2018-07-28T06:42:40.780Z,29.50
2018-07-28T06:47:43.782Z,28.60
2018-07-28T06:52:46.975Z,28.40
2018-07-28T06:57:50.189Z,27.90
2018-07-28T07:02:53.316Z,27.30
2018-07-28T07:07:56.497Z,26.90
2018-07-28T07:12:59.614Z,26.80
2018-07-28T07:18:02.628Z,27.00
2018-07-28T07:23:05.637Z,27.10
2018-07-28T07:28:08.654Z,27.10
2018-07-28T07:33:11.726Z,28.00
2018-07-28T07:38:14.965Z,27.80
2018-07-28T07:43:18.169Z,29.40
2018-07-28T07:48:21.282Z,29.90
2018-07-28T07:53:24.302Z,30.10
2018-07-28T07:58:27.312Z,31.00
2018-07-28T08:03:30.599Z,28.80
2018-07-28T08:08:33.928Z,27.60
2018-07-28T08:13:37.207Z,26.80
2018-07-28T08:18:40.413Z,25.30
2018-07-28T08:23:43.622Z,24.30
2018-07-28T08:28:46.743Z,24.30
2018-07-28T08:33:49.848Z,24.70
2018-07-28T08:38:52.881Z,25.20
2018-07-28T08:43:56.156Z,26.00
2018-07-28T08:48:59.217Z,25.90
2018-07-28T08:54:02.618Z,26.30
2018-07-28T08:59:05.805Z,26.40
2018-07-28T09:04:08.828Z,26.10
2018-07-28T09:09:11.844Z,25.90
2018-07-28T09:14:14.868Z,26.00
2018-07-28T09:19:18.107Z,26.00
2018-07-28T09:24:21.307Z,26.60
2018-07-28T09:29:24.288Z,27.00
2018-07-28T09:34:27.325Z,27.10
2018-07-28T09:39:30.361Z,27.00
2018-07-28T09:44:33.385Z,27.40
2018-07-28T09:49:36.431Z,27.60
2018-07-28T09:54:39.855Z,28.00
2018-07-28T09:59:42.897Z,28.50
2018-07-28T10:04:45.847Z,29.40
2018-07-28T10:09:48.883Z,28.60
2018-07-28T10:14:54.531Z,28.80
2018-07-28T10:19:57.666Z,29.00
2018-07-28T10:25:00.685Z,29.90
2018-07-28T10:30:05.486Z,29.90
2018-07-28T10:35:10.076Z,29.60
2018-07-28T10:40:13.127Z,30.00
2018-07-28T10:45:16.268Z,30.10
2018-07-28T10:50:19.548Z,29.90
2018-07-28T10:55:22.876Z,30.00
2018-07-28T11:00:26.074Z,30.60
2018-07-28T11:05:29.160Z,31.50
2018-07-28T11:10:32.201Z,31.30
2018-07-28T11:15:35.287Z,31.00
2018-07-28T11:20:38.317Z,30.80
2018-07-28T11:25:41.323Z,31.10
2018-07-28T11:30:44.388Z,31.90
2018-07-28T11:36:04.483Z,31.60
2018-07-28T11:41:25.662Z,31.70
2018-07-28T11:46:28.722Z,31.90
2018-07-28T11:51:31.847Z,31.80
2018-07-28T11:56:34.804Z,31.90
2018-07-28T12:01:38.020Z,32.10
2018-07-28T12:06:41.031Z,32.10
2018-07-28T12:11:44.116Z,32.10
2018-07-28T12:16:47.380Z,32.60
2018-07-28T12:21:50.529Z,32.80
2018-07-28T12:26:53.652Z,32.70
2018-07-28T12:31:56.700Z,32.70
2018-07-28T12:37:00.005Z,32.30
2018-07-28T12:42:03.058Z,32.40
2018-07-28T12:47:06.648Z,32.50
2018-07-28T12:52:09.796Z,33.00
2018-07-28T12:57:12.819Z,33.30
2018-07-28T13:02:15.987Z,33.30
2018-07-28T13:07:19.040Z,33.40
2018-07-28T13:12:22.289Z,33.50
2018-07-28T13:17:25.280Z,33.90
2018-07-28T13:22:28.655Z,33.80
2018-07-28T13:27:31.945Z,32.60
2018-07-28T13:32:35.075Z,30.50
2018-07-28T13:37:38.068Z,29.80
2018-07-28T13:42:41.325Z,28.00
2018-07-28T13:47:44.355Z,26.40
2018-07-28T13:52:47.853Z,26.20
2018-07-28T13:57:51.136Z,26.70
2018-07-28T14:02:54.422Z,26.80
2018-07-28T14:07:57.399Z,27.30
2018-07-28T14:13:00.468Z,27.40
2018-07-28T14:18:03.557Z,27.50
2018-07-28T14:23:06.883Z,27.20
2018-07-28T14:28:09.942Z,27.10
2018-07-28T14:33:13.158Z,27.00
2018-07-28T14:38:16.201Z,27.30
2018-07-28T14:43:19.385Z,27.10
2018-07-28T14:48:22.815Z,27.40
2018-07-28T14:53:26.054Z,27.40
2018-07-28T14:58:29.323Z,27.70
2018-07-28T15:03:32.469Z,27.60
2018-07-28T15:08:35.482Z,27.80
2018-07-28T15:18:41.572Z,28.40
2018-07-28T15:23:44.595Z,28.70
2018-07-28T15:33:52.949Z,29.60
2018-07-28T15:38:56.008Z,29.80
2018-07-28T15:43:59.566Z,29.90
2018-07-28T15:49:02.869Z,29.70
2018-07-28T15:54:06.341Z,29.50
2018-07-28T15:59:09.454Z,29.50
2018-07-28T16:04:12.528Z,29.40
2018-07-28T16:09:15.832Z,29.40
2018-07-28T16:14:18.839Z,29.70
2018-07-28T16:19:21.872Z,29.90
2018-07-28T16:24:24.888Z,29.90
2018-07-28T16:29:27.950Z,29.80
2018-07-28T16:34:31.493Z,29.50
2018-07-28T16:39:34.497Z,29.40
2018-07-28T16:44:37.560Z,29.00
2018-07-28T16:49:40.916Z,28.80
2018-07-28T16:54:44.274Z,29.30
2018-07-28T16:59:47.301Z,29.40
2018-07-28T17:04:50.535Z,29.60
2018-07-28T17:09:53.706Z,29.50
2018-07-28T17:14:56.996Z,29.60
2018-07-28T17:20:00.304Z,29.20
2018-07-28T17:25:03.443Z,29.20
2018-07-28T17:30:06.516Z,29.00
2018-07-28T17:35:09.584Z,28.80
2018-07-28T17:40:12.624Z,29.00
2018-07-28T17:45:15.948Z,28.80
2018-07-28T17:50:19.148Z,28.90
2018-07-28T17:55:22.460Z,28.90
2018-07-28T18:00:25.679Z,28.90
2018-07-28T18:05:28.980Z,28.70
2018-07-28T18:10:31.988Z,28.40
2018-07-28T18:15:35.380Z,28.60
2018-07-28T18:20:38.383Z,28.40
2018-07-28T18:25:41.783Z,28.30
2018-07-28T18:30:44.725Z,27.80
2018-07-28T18:35:48.036Z,27.80
2018-07-28T18:40:51.181Z,27.70
2018-07-28T18:45:54.244Z,27.50
2018-07-28T18:50:57.289Z,27.40
2018-07-28T18:56:00.632Z,27.20
2018-07-28T19:01:03.751Z,27.00
2018-07-28T19:06:07.288Z,26.90
2018-07-28T19:11:10.379Z,26.60
2018-07-28T19:16:13.782Z,26.40
2018-07-28T19:21:16.835Z,26.20
2018-07-28T19:26:19.917Z,26.00
2018-07-28T19:31:22.950Z,25.90
2018-07-28T19:36:31.732Z,25.80
2018-07-28T19:41:40.642Z,25.70
2018-07-28T19:46:43.654Z,25.60
2018-07-28T19:51:46.920Z,25.60
2018-07-28T19:56:50.153Z,25.40
2018-07-28T20:01:53.512Z,25.30
2018-07-28T20:06:56.649Z,25.00
2018-07-28T20:11:59.637Z,24.90
2018-07-28T20:17:02.746Z,24.80
2018-07-28T20:22:05.744Z,24.70
2018-07-28T20:27:08.876Z,24.60
2018-07-28T20:32:12.159Z,24.40
2018-07-28T20:37:15.147Z,24.40
2018-07-28T20:42:18.589Z,24.20
2018-07-28T20:47:21.841Z,24.20
2018-07-28T20:57:28.096Z,23.80
2018-07-28T21:02:31.161Z,24.00
2018-07-28T21:07:34.256Z,23.80
2018-07-28T21:12:37.333Z,23.70
2018-07-28T21:17:40.336Z,23.60
2018-07-28T21:22:43.425Z,23.50
2018-07-28T21:27:46.749Z,23.30
2018-07-28T21:32:49.974Z,23.10
2018-07-28T21:37:53.100Z,22.90
2018-07-28T21:42:56.390Z,22.80
2018-07-28T21:47:59.711Z,22.70
2018-07-28T21:53:02.817Z,22.50
2018-07-28T21:58:05.937Z,22.50
2018-07-28T22:03:09.015Z,22.50
2018-07-28T22:08:12.083Z,22.60
2018-07-28T22:13:15.219Z,22.50
2018-07-28T22:18:18.798Z,22.40
2018-07-28T22:23:21.903Z,22.40
2018-07-28T22:28:25.097Z,22.40
2018-07-28T22:33:28.130Z,22.10
2018-07-28T22:38:31.227Z,22.10
2018-07-28T22:43:34.416Z,22.00
2018-07-28T22:48:37.574Z,22.00
2018-07-28T22:53:40.666Z,22.00
2018-07-28T22:58:43.679Z,20.70
2018-07-28T23:03:46.751Z,20.50
2018-07-28T23:08:49.768Z,20.60
2018-07-28T23:13:53.011Z,20.80
2018-07-28T23:18:56.067Z,20.80
2018-07-28T23:23:59.333Z,20.40
2018-07-28T23:29:02.388Z,20.10
2018-07-28T23:34:05.740Z,19.90
2018-07-28T23:39:09.449Z,20.10
2018-07-28T23:44:12.669Z,20.00
2018-07-28T23:49:15.747Z,19.80
2018-07-28T23:54:18.839Z,19.60
2018-07-28T23:59:21.898Z,19.20
